createdAt,value
2022-12-28T00:01:21.077Z,12.52
2022-12-28T00:03:47.916Z,12.48
2022-12-28T00:06:14.883Z,10.85
2022-12-28T00:08:41.385Z,9.20
2022-12-28T00:11:28.314Z,7.70
2022-12-28T00:14:00.140Z,11.18
2022-12-28T00:16:34.205Z,10.23
2022-12-28T00:19:02.686Z,12.02
2022-12-28T00:21:29.613Z,14.68
2022-12-28T00:23:58.510Z,14.15
2022-12-28T00:26:26.861Z,12.45
2022-12-28T00:28:56.791Z,11.95
2022-12-28T00:31:26.704Z,14.88
2022-12-28T00:33:53.624Z,14.13
2022-12-28T00:36:20.195Z,14.65
2022-12-28T00:38:46.653Z,13.02
2022-12-28T00:41:15.492Z,12.40
2022-12-28T00:43:46.071Z,15.63
2022-12-28T00:46:12.625Z,12.02
2022-12-28T00:48:39.250Z,18.67
2022-12-28T00:51:12.166Z,13.20
2022-12-28T00:53:38.862Z,11.98
2022-12-28T00:56:15.674Z,16.33
2022-12-28T00:58:42.320Z,16.55
2022-12-28T01:01:17.755Z,15.40
2022-12-28T01:03:44.355Z,17.08
2022-12-28T01:06:17.035Z,14.57
2022-12-28T01:08:43.895Z,12.30
2022-12-28T01:11:25.345Z,15.80
2022-12-28T01:13:53.187Z,12.30
2022-12-28T01:16:23.064Z,13.73
2022-12-28T01:18:53.452Z,14.60
2022-12-28T01:21:24.154Z,10.05
2022-12-28T01:23:54.627Z,16.27
2022-12-28T01:26:21.919Z,18.88
2022-12-28T01:28:50.663Z,15.43
2022-12-28T01:31:19.714Z,12.20
2022-12-28T01:33:46.771Z,14.10
2022-12-28T01:36:14.617Z,14.95
2022-12-28T01:38:41.159Z,14.00
2022-12-28T01:41:09.883Z,19.30
2022-12-28T01:43:47.453Z,12.77
2022-12-28T01:46:17.616Z,11.88
2022-12-28T01:49:01.711Z,12.50
2022-12-28T01:51:33.034Z,12.20
2022-12-28T01:54:01.587Z,12.30
2022-12-28T01:56:28.357Z,10.52
2022-12-28T01:58:58.976Z,11.82
2022-12-28T02:01:25.801Z,11.82
2022-12-28T02:03:52.534Z,11.23
2022-12-28T02:06:19.779Z,11.20
2022-12-28T02:09:04.205Z,10.98
2022-12-28T02:11:31.352Z,15.07
2022-12-28T02:13:59.418Z,9.75
2022-12-28T02:16:26.084Z,11.05
2022-12-28T02:18:54.253Z,9.70
2022-12-28T02:21:40.550Z,10.23
2022-12-28T02:24:33.068Z,10.18
2022-12-28T02:27:24.558Z,10.88
2022-12-28T02:30:07.868Z,10.63
2022-12-28T02:32:37.423Z,13.82
2022-12-28T02:35:10.598Z,10.73
2022-12-28T02:37:44.514Z,14.98
2022-12-28T02:40:14.005Z,10.70
2022-12-28T02:42:43.144Z,10.18
2022-12-28T02:45:49.784Z,12.35
2022-12-28T02:48:34.974Z,9.30
2022-12-28T02:51:28.566Z,10.73
2022-12-28T02:54:07.237Z,11.30
2022-12-28T02:56:39.886Z,11.77
2022-12-28T02:59:15.930Z,14.10
2022-12-28T03:01:54.923Z,16.30
2022-12-28T03:04:36.860Z,16.88
2022-12-28T03:07:32.357Z,14.25
2022-12-28T03:10:15.841Z,14.13
2022-12-28T03:12:48.173Z,15.10
2022-12-28T03:15:29.695Z,12.93
2022-12-28T03:18:37.259Z,15.52
2022-12-28T03:21:29.199Z,15.90
2022-12-28T03:24:15.515Z,15.48
2022-12-28T03:27:06.950Z,13.48
2022-12-28T03:29:58.879Z,13.55
2022-12-28T03:32:25.536Z,13.15
2022-12-28T03:34:59.592Z,12.63
2022-12-28T03:37:30.174Z,13.25
2022-12-28T03:40:20.681Z,12.05
2022-12-28T03:43:09.262Z,11.13
2022-12-28T03:45:45.536Z,13.43
2022-12-28T03:48:13.692Z,12.48
2022-12-28T03:50:46.276Z,13.60
2022-12-28T03:53:12.869Z,13.00
2022-12-28T03:55:43.329Z,12.43
2022-12-28T03:58:10.256Z,14.35
2022-12-28T04:00:36.709Z,11.82
2022-12-28T04:03:05.716Z,12.40
2022-12-28T04:05:32.463Z,11.82
2022-12-28T04:07:58.914Z,10.23
2022-12-28T04:10:27.568Z,13.32
2022-12-28T04:12:55.736Z,13.73
2022-12-28T04:15:22.317Z,11.77
2022-12-28T04:17:48.804Z,13.15
2022-12-28T04:20:15.352Z,12.23
2022-12-28T04:22:41.845Z,10.57
2022-12-28T04:25:08.605Z,13.05
2022-12-28T04:27:37.571Z,12.65
2022-12-28T04:30:07.173Z,13.18
2022-12-28T04:32:35.995Z,12.07
2022-12-28T04:35:02.706Z,14.90
2022-12-28T04:37:32.498Z,11.65
2022-12-28T04:39:59.380Z,10.55
2022-12-28T04:42:26.184Z,8.90
2022-12-28T04:44:55.171Z,11.35
2022-12-28T04:47:21.626Z,11.60
2022-12-28T04:49:48.185Z,10.52
2022-12-28T04:52:14.742Z,7.45
2022-12-28T04:54:41.179Z,11.02
2022-12-28T04:57:07.992Z,9.27
2022-12-28T04:59:34.546Z,11.88
2022-12-28T05:02:03.479Z,11.85
2022-12-28T05:04:30.129Z,8.45
2022-12-28T05:06:56.573Z,9.48
2022-12-28T05:09:23.086Z,9.15
2022-12-28T05:11:49.876Z,10.15
2022-12-28T05:14:16.457Z,8.80
2022-12-28T05:16:42.978Z,11.05
2022-12-28T05:19:09.460Z,8.93
2022-12-28T05:21:36.332Z,6.72
2022-12-28T05:24:05.451Z,16.70
2022-12-28T05:26:31.974Z,10.35
2022-12-28T05:29:00.769Z,10.63
2022-12-28T05:31:29.753Z,11.77
2022-12-28T05:33:56.364Z,11.82
2022-12-28T05:36:25.380Z,14.23
2022-12-28T05:38:53.119Z,10.68
2022-12-28T05:41:28.168Z,13.77
2022-12-28T05:43:56.809Z,12.07
2022-12-28T05:46:27.255Z,12.75
2022-12-28T05:48:55.402Z,15.75
2022-12-28T05:51:25.416Z,10.48
2022-12-28T05:53:51.922Z,10.95
2022-12-28T05:56:24.304Z,10.77
2022-12-28T05:59:05.738Z,12.13
2022-12-28T06:01:35.513Z,10.13
2022-12-28T06:04:05.550Z,7.05
2022-12-28T06:06:33.828Z,9.45
2022-12-28T06:09:01.710Z,7.97
2022-12-28T06:11:29.344Z,8.50
2022-12-28T06:13:56.101Z,8.48
2022-12-28T06:16:25.635Z,8.55
2022-12-28T06:18:54.485Z,9.82
2022-12-28T06:21:22.694Z,8.80
2022-12-28T06:23:53.714Z,8.05
2022-12-28T06:26:22.123Z,8.05
2022-12-28T06:28:49.196Z,8.55
2022-12-28T06:31:18.550Z,8.90
2022-12-28T06:33:46.448Z,11.20
2022-12-28T06:36:20.303Z,12.30
2022-12-28T06:38:50.916Z,9.05
2022-12-28T06:41:19.822Z,11.48
2022-12-28T06:43:47.192Z,9.10
2022-12-28T06:46:14.793Z,15.25
2022-12-28T06:48:42.157Z,16.83
2022-12-28T06:51:17.555Z,17.27
2022-12-28T06:53:45.229Z,13.55
2022-12-28T06:56:14.856Z,17.38
2022-12-28T06:58:42.226Z,19.92
2022-12-28T07:01:19.283Z,15.77
2022-12-28T07:03:49.719Z,14.68
2022-12-28T07:06:18.058Z,12.77
2022-12-28T07:08:45.075Z,12.55
2022-12-28T07:11:17.329Z,16.85
2022-12-28T07:13:43.911Z,14.07
2022-12-28T07:16:20.360Z,18.23
2022-12-28T07:18:47.238Z,14.10
2022-12-28T07:21:17.797Z,15.45
2022-12-28T07:23:44.247Z,20.67
2022-12-28T07:26:13.474Z,28.45
2022-12-28T07:28:42.319Z,14.07
2022-12-28T07:31:14.970Z,8.77
2022-12-28T07:33:41.497Z,8.63
2022-12-28T07:36:11.537Z,39.00
2022-12-28T07:38:38.316Z,34.22
2022-12-28T07:41:07.726Z,19.27
2022-12-28T07:43:34.765Z,10.68
2022-12-28T07:46:07.054Z,9.40
2022-12-28T07:48:35.087Z,9.20
2022-12-28T07:51:29.362Z,10.15
2022-12-28T07:54:01.635Z,9.50
2022-12-28T07:56:30.014Z,8.43
2022-12-28T07:58:59.148Z,8.68
2022-12-28T08:01:29.406Z,8.85
2022-12-28T08:03:59.357Z,7.25
2022-12-28T08:06:27.247Z,9.60
2022-12-28T08:08:56.220Z,8.15
2022-12-28T08:11:26.157Z,7.95
2022-12-28T08:13:55.076Z,9.13
2022-12-28T08:16:26.873Z,9.73
2022-12-28T08:18:54.288Z,11.93
2022-12-28T08:21:24.161Z,9.95
2022-12-28T08:23:51.073Z,11.23
2022-12-28T08:26:22.860Z,9.85
2022-12-28T08:28:52.002Z,10.30
2022-12-28T08:31:24.060Z,7.55
2022-12-28T08:33:52.166Z,8.27
2022-12-28T08:36:18.702Z,6.78
2022-12-28T08:38:48.439Z,8.10
2022-12-28T08:41:18.166Z,11.80
2022-12-28T08:43:45.680Z,15.30
2022-12-28T08:46:18.066Z,17.10
2022-12-28T08:48:45.868Z,17.05
2022-12-28T08:51:27.117Z,16.17
2022-12-28T08:53:53.705Z,33.08
2022-12-28T08:56:24.687Z,63.55
2022-12-28T08:58:52.219Z,18.50
2022-12-28T09:01:22.579Z,12.35
2022-12-28T09:03:51.341Z,196.38
2022-12-28T09:06:23.153Z,138.20
2022-12-28T09:09:05.561Z,73.95
2022-12-28T09:11:35.040Z,22.98
2022-12-28T09:14:02.663Z,9.10
2022-12-28T09:16:29.370Z,9.35
2022-12-28T09:18:59.348Z,10.85
2022-12-28T09:21:31.117Z,13.27
2022-12-28T09:23:57.901Z,9.77
2022-12-28T09:26:28.632Z,10.95
2022-12-28T09:28:57.771Z,14.85
2022-12-28T09:31:26.963Z,14.25
2022-12-28T09:34:34.959Z,14.75
2022-12-28T09:36:49.598Z,15.02
2022-12-28T09:39:21.859Z,14.73
2022-12-28T09:41:48.555Z,12.45
2022-12-28T09:44:47.579Z,12.70
2022-12-28T09:47:28.070Z,17.30
2022-12-28T09:50:16.492Z,23.15
2022-12-28T09:52:49.884Z,21.45
2022-12-28T09:57:55.711Z,13.90
2022-12-28T10:00:24.005Z,20.27
2022-12-28T10:03:26.878Z,20.05
2022-12-28T10:05:57.378Z,16.40
2022-12-28T10:08:26.072Z,12.05
2022-12-28T10:10:55.377Z,9.23
2022-12-28T10:13:54.243Z,7.50
2022-12-28T10:16:18.933Z,7.57
2022-12-28T10:18:46.726Z,6.10
2022-12-28T10:21:14.914Z,7.45
2022-12-28T10:24:04.707Z,7.10
2022-12-28T10:26:30.148Z,7.25
2022-12-28T10:29:01.191Z,10.30
2022-12-28T10:31:38.411Z,7.40
2022-12-28T10:34:22.734Z,7.32
2022-12-28T10:36:50.873Z,9.77
2022-12-28T10:39:24.272Z,5.65
2022-12-28T10:44:41.829Z,6.40
2022-12-28T10:47:35.349Z,7.85
2022-12-28T10:50:35.941Z,19.23
2022-12-28T10:52:58.419Z,37.70
2022-12-28T10:55:33.640Z,19.42
2022-12-28T10:58:32.943Z,21.83
2022-12-28T11:01:30.007Z,12.35
2022-12-28T11:03:56.702Z,18.90
2022-12-28T11:06:27.504Z,28.50
2022-12-28T11:09:20.328Z,42.45
2022-12-28T11:11:49.582Z,47.80
2022-12-28T11:14:33.060Z,38.22
2022-12-28T11:17:12.719Z,30.08
2022-12-28T11:19:39.374Z,25.52
2022-12-28T11:22:12.451Z,23.80
2022-12-28T11:24:40.416Z,27.98
2022-12-28T11:27:13.676Z,10.77
2022-12-28T11:29:45.223Z,10.80
2022-12-28T11:32:36.215Z,6.70
2022-12-28T11:35:03.707Z,4.53
2022-12-28T11:37:30.193Z,18.50
2022-12-28T11:39:58.570Z,22.33
2022-12-28T11:42:39.625Z,14.35
2022-12-28T11:45:16.573Z,11.77
2022-12-28T11:47:43.403Z,9.10
2022-12-28T11:50:36.595Z,6.88
2022-12-28T11:53:18.711Z,5.63
2022-12-28T11:55:59.393Z,4.88
2022-12-28T11:58:28.717Z,7.20
2022-12-28T12:00:55.346Z,4.57
2022-12-28T12:03:57.068Z,6.97
2022-12-28T12:06:42.298Z,4.97
2022-12-28T12:09:20.983Z,3.08
2022-12-28T12:11:49.732Z,2.40
2022-12-28T12:14:24.229Z,3.28
2022-12-28T12:17:03.698Z,5.47
2022-12-28T12:19:33.728Z,3.92
2022-12-28T12:22:14.869Z,4.15
2022-12-28T12:24:50.115Z,3.50
2022-12-28T12:27:32.407Z,3.67
2022-12-28T12:30:07.971Z,5.70
2022-12-28T12:32:44.565Z,4.63
2022-12-28T12:35:15.523Z,8.90
2022-12-28T12:37:51.669Z,4.10
2022-12-28T12:40:44.443Z,3.97
2022-12-28T12:43:42.140Z,5.15
2022-12-28T12:46:30.544Z,4.95
2022-12-28T12:49:04.029Z,4.70
2022-12-28T12:51:46.380Z,3.83
2022-12-28T12:54:39.303Z,4.47
2022-12-28T12:57:27.987Z,4.28
2022-12-28T13:00:15.818Z,4.82
2022-12-28T13:02:53.151Z,5.68
2022-12-28T13:05:27.239Z,5.28
2022-12-28T13:07:56.627Z,4.57
2022-12-28T13:10:30.265Z,7.22
2022-12-28T13:12:58.733Z,5.40
2022-12-28T13:15:25.852Z,18.35
2022-12-28T13:18:43.581Z,7.22
2022-12-28T13:21:07.299Z,7.43
2022-12-28T13:23:44.338Z,5.35
2022-12-28T13:28:53.231Z,5.53
2022-12-28T13:31:23.374Z,5.03
2022-12-28T13:34:01.688Z,4.75
2022-12-28T13:36:28.403Z,3.20
2022-12-28T13:39:10.665Z,5.13
2022-12-28T13:41:38.730Z,7.03
2022-12-28T13:44:19.466Z,6.18
2022-12-28T13:46:51.702Z,4.45
2022-12-28T13:49:20.927Z,4.28
2022-12-28T13:51:53.285Z,4.07
2022-12-28T13:54:22.667Z,6.43
2022-12-28T13:56:49.214Z,2.90
2022-12-28T13:59:18.966Z,5.90
2022-12-28T14:01:50.231Z,6.13
2022-12-28T14:04:51.735Z,4.22
2022-12-28T14:07:18.331Z,7.93
2022-12-28T14:09:47.140Z,8.30
2022-12-28T14:12:14.937Z,4.90
2022-12-28T14:14:45.270Z,5.85
2022-12-28T14:17:15.431Z,5.97
2022-12-28T14:19:43.189Z,7.07
2022-12-28T14:22:33.122Z,6.28
2022-12-28T14:25:11.278Z,8.05
2022-12-28T14:27:58.365Z,8.27
2022-12-28T14:30:28.624Z,3.83
2022-12-28T14:32:56.446Z,7.10
2022-12-28T14:35:28.517Z,4.00
2022-12-28T14:37:58.772Z,3.97
2022-12-28T14:40:32.441Z,4.72
2022-12-28T14:43:08.203Z,6.97
2022-12-28T14:46:06.606Z,6.30
2022-12-28T14:51:31.675Z,4.60
2022-12-28T14:54:19.713Z,4.68
2022-12-28T14:56:52.216Z,3.40
2022-12-28T14:59:25.120Z,6.90
2022-12-28T15:01:52.559Z,5.57
2022-12-28T15:04:28.920Z,5.32
2022-12-28T15:06:55.469Z,5.93
2022-12-28T15:09:26.825Z,8.70
2022-12-28T15:12:13.346Z,6.80
2022-12-28T15:14:40.642Z,8.27
2022-12-28T15:17:09.988Z,13.52
2022-12-28T15:19:39.182Z,13.02
2022-12-28T15:22:08.299Z,10.45
2022-12-28T15:24:35.410Z,10.18
2022-12-28T15:27:03.588Z,12.77
2022-12-28T15:32:16.760Z,10.80
2022-12-28T15:34:43.305Z,11.93
2022-12-28T15:37:09.777Z,17.17
2022-12-28T15:39:36.284Z,17.33
2022-12-28T15:42:02.790Z,25.52
2022-12-28T15:44:29.350Z,32.03
2022-12-28T15:46:55.863Z,24.23
2022-12-28T15:49:22.425Z,25.05
2022-12-28T15:51:48.942Z,19.88
2022-12-28T15:54:15.428Z,19.85
2022-12-28T15:56:42.565Z,14.65
2022-12-28T15:59:14.198Z,12.80
2022-12-28T16:01:43.808Z,9.60
2022-12-28T16:04:10.888Z,11.38
2022-12-28T16:06:43.944Z,13.05
2022-12-28T16:09:12.364Z,22.85
2022-12-28T16:11:41.637Z,23.33
2022-12-28T16:14:14.807Z,25.05
2022-12-28T16:16:41.963Z,21.50
2022-12-28T16:19:10.544Z,21.58
2022-12-28T16:21:37.035Z,17.40
2022-12-28T16:24:03.705Z,10.73
2022-12-28T16:26:32.406Z,10.50
2022-12-28T16:28:59.850Z,9.10
2022-12-28T16:31:37.960Z,11.07
2022-12-28T16:34:11.537Z,8.50
2022-12-28T16:36:40.880Z,8.07
2022-12-28T16:39:11.945Z,6.72
2022-12-28T16:41:38.415Z,6.10
2022-12-28T16:44:07.934Z,8.35
2022-12-28T16:46:34.428Z,9.73
2022-12-28T16:49:02.036Z,6.57
2022-12-28T16:51:29.599Z,6.20
2022-12-28T16:53:56.113Z,5.72
2022-12-28T16:56:22.587Z,5.70
2022-12-28T16:58:49.583Z,5.78
2022-12-28T17:01:19.137Z,6.72
2022-12-28T17:03:45.638Z,8.25
2022-12-28T17:06:14.951Z,8.55
2022-12-28T17:08:41.441Z,8.48
2022-12-28T17:11:09.863Z,8.55
2022-12-28T17:13:42.149Z,15.13
2022-12-28T17:16:11.010Z,17.77
2022-12-28T17:18:38.324Z,21.98
2022-12-28T17:21:10.217Z,23.70
2022-12-28T17:23:38.924Z,27.70
2022-12-28T17:26:05.653Z,23.48
2022-12-28T17:28:32.211Z,14.48
2022-12-28T17:31:14.189Z,12.50
2022-12-28T17:33:45.738Z,7.75
2022-12-28T17:36:12.355Z,6.60
2022-12-28T17:38:39.064Z,11.38
2022-12-28T17:41:11.577Z,8.48
2022-12-28T17:43:38.467Z,9.13
2022-12-28T17:46:05.365Z,7.90
2022-12-28T17:48:31.940Z,14.00
2022-12-28T17:51:02.804Z,17.27
2022-12-28T17:53:32.407Z,33.67
2022-12-28T17:56:03.482Z,24.33
2022-12-28T17:58:32.739Z,20.80
2022-12-28T18:00:59.556Z,15.65
2022-12-28T18:03:31.685Z,17.92
2022-12-28T18:06:00.362Z,21.90
2022-12-28T18:08:26.853Z,30.67
2022-12-28T18:10:54.119Z,36.33
2022-12-28T18:13:22.850Z,41.97
2022-12-28T18:15:49.496Z,49.10
2022-12-28T18:18:17.248Z,52.97
2022-12-28T18:20:44.192Z,54.95
2022-12-28T18:23:12.087Z,37.28
2022-12-28T18:25:40.820Z,114.55
2022-12-28T18:28:07.341Z,63.40
2022-12-28T18:30:33.845Z,48.80
2022-12-28T18:33:00.281Z,43.08
2022-12-28T18:35:26.954Z,36.33
2022-12-28T18:37:53.723Z,31.17
2022-12-28T18:40:20.308Z,28.92
2022-12-28T18:42:50.181Z,25.73
2022-12-28T18:45:16.768Z,26.23
2022-12-28T18:47:43.269Z,29.38
2022-12-28T18:50:10.507Z,27.67
2022-12-28T18:52:39.930Z,24.40
2022-12-28T18:55:06.815Z,21.98
2022-12-28T18:57:35.827Z,13.10
2022-12-28T19:00:02.496Z,13.23
2022-12-28T19:02:29.072Z,12.77
2022-12-28T19:04:58.379Z,9.82
2022-12-28T19:07:25.165Z,10.15
2022-12-28T19:10:13.008Z,27.40
2022-12-28T19:12:41.364Z,34.90
2022-12-28T19:15:08.935Z,33.40
2022-12-28T19:17:35.515Z,40.92
2022-12-28T19:20:02.194Z,28.17
2022-12-28T19:22:29.868Z,17.77
2022-12-28T19:24:56.330Z,21.42
2022-12-28T19:27:22.836Z,16.15
2022-12-28T19:29:50.578Z,24.90
2022-12-28T19:32:17.143Z,16.05
2022-12-28T19:34:43.688Z,16.35
2022-12-28T19:37:12.578Z,11.48
2022-12-28T19:39:39.022Z,11.82
2022-12-28T19:42:05.529Z,10.73
2022-12-28T19:44:32.059Z,13.45
2022-12-28T19:46:58.841Z,6.57
2022-12-28T19:49:25.533Z,6.63
2022-12-28T19:51:52.351Z,8.93
2022-12-28T19:54:18.907Z,10.70
2022-12-28T19:56:45.491Z,5.35
2022-12-28T19:59:12.102Z,5.88
2022-12-28T20:01:39.194Z,11.82
2022-12-28T20:04:14.000Z,4.78
2022-12-28T20:06:45.852Z,6.72
2022-12-28T20:09:13.655Z,7.78
2022-12-28T20:11:40.865Z,5.97
2022-12-28T20:14:08.260Z,7.10
2022-12-28T20:16:35.656Z,7.15
2022-12-28T20:19:06.771Z,6.35
2022-12-28T20:21:36.404Z,8.00
2022-12-28T20:24:03.986Z,11.27
2022-12-28T20:26:30.922Z,15.35
2022-12-28T20:28:59.168Z,36.53
2022-12-28T20:31:26.784Z,57.33
2022-12-28T20:33:54.204Z,61.20
2022-12-28T20:36:23.631Z,39.47
2022-12-28T20:38:54.686Z,51.67
2022-12-28T20:41:42.864Z,59.67
2022-12-28T20:44:12.451Z,19.85
2022-12-28T20:46:39.224Z,21.90
2022-12-28T20:49:09.270Z,25.52
2022-12-28T20:51:35.948Z,31.40
2022-12-28T20:54:03.752Z,24.55
2022-12-28T20:56:30.306Z,20.05
2022-12-28T20:58:57.367Z,21.00
2022-12-28T21:01:23.961Z,12.20
2022-12-28T21:03:50.649Z,15.07
2022-12-28T21:06:17.220Z,54.42
2022-12-28T21:08:43.769Z,37.92
2022-12-28T21:11:10.409Z,29.42
2022-12-28T21:13:42.223Z,16.45
2022-12-28T21:18:37.662Z,42.50
2022-12-28T21:21:04.512Z,8.70
2022-12-28T21:23:31.833Z,6.20
2022-12-28T21:26:05.878Z,7.07
2022-12-28T21:28:33.398Z,9.43
2022-12-28T21:31:03.005Z,23.55
2022-12-28T21:33:29.725Z,18.38
2022-12-28T21:36:08.022Z,12.20
2022-12-28T21:38:38.400Z,63.00
2022-12-28T21:41:39.480Z,21.85
2022-12-28T21:44:07.851Z,8.73
2022-12-28T21:46:34.441Z,16.48
2022-12-28T21:49:03.420Z,19.08
2022-12-28T21:51:39.364Z,33.28
2022-12-28T21:54:19.517Z,19.45
2022-12-28T21:56:49.521Z,14.20
2022-12-28T21:59:16.435Z,19.60
2022-12-28T22:02:01.803Z,10.98
2022-12-28T22:04:49.772Z,19.05
2022-12-28T22:07:20.624Z,8.65
2022-12-28T22:10:06.192Z,14.85
2022-12-28T22:12:34.344Z,11.55
2022-12-28T22:15:28.306Z,9.07
2022-12-28T22:18:01.165Z,17.60
2022-12-28T22:20:29.072Z,59.10
2022-12-28T22:23:00.161Z,36.42
2022-12-28T22:25:28.504Z,44.83
2022-12-28T22:27:55.551Z,92.75
2022-12-28T22:30:22.190Z,97.25
2022-12-28T22:32:48.646Z,49.75
2022-12-28T22:35:15.288Z,19.95
2022-12-28T22:37:42.787Z,11.40
2022-12-28T22:40:10.377Z,7.13
2022-12-28T22:42:43.921Z,6.07
2022-12-28T22:47:38.662Z,6.10
2022-12-28T22:50:06.743Z,5.90
2022-12-28T22:52:33.426Z,5.28
2022-12-28T22:55:00.148Z,7.78
2022-12-28T22:57:30.617Z,12.68
2022-12-28T22:59:57.091Z,7.93
2022-12-28T23:02:24.020Z,9.40
2022-12-28T23:04:50.563Z,7.72
2022-12-28T23:07:17.888Z,8.20
2022-12-28T23:09:49.191Z,5.65
2022-12-28T23:12:17.927Z,4.57
2022-12-28T23:15:03.067Z,4.43
2022-12-28T23:17:29.665Z,4.47
2022-12-28T23:20:14.893Z,7.25
2022-12-28T23:22:59.761Z,8.82
2022-12-28T23:25:45.293Z,6.72
2022-12-28T23:28:18.449Z,11.95
2022-12-28T23:30:48.495Z,10.38
2022-12-28T23:33:16.452Z,17.90
2022-12-28T23:35:43.438Z,17.55
2022-12-28T23:38:10.274Z,15.60
2022-12-28T23:40:40.903Z,16.00
2022-12-28T23:43:07.917Z,15.95
2022-12-28T23:45:35.223Z,12.48
2022-12-28T23:48:02.071Z,9.73
2022-12-28T23:50:28.583Z,24.92
2022-12-28T23:52:55.047Z,10.93
2022-12-28T23:55:23.745Z,6.60
2022-12-28T23:57:50.687Z,6.75
